createdAt,value
2019-04-01T00:01:28.863Z,69.44
2019-04-01T00:03:58.586Z,69.86
2019-04-01T00:06:28.316Z,70.17
2019-04-01T00:08:58.252Z,70.30
2019-04-01T00:11:28.086Z,69.95
2019-04-01T00:13:57.928Z,70.79
2019-04-01T00:16:28.673Z,70.89
2019-04-01T00:19:03.291Z,71.26
2019-04-01T00:21:29.888Z,71.66
2019-04-01T00:23:59.716Z,72.15
2019-04-01T00:26:29.438Z,71.96
2019-04-01T00:28:59.357Z,72.17
2019-04-01T00:31:29.310Z,72.34
2019-04-01T00:33:59.152Z,72.41
2019-04-01T00:36:29.086Z,72.56
2019-04-01T00:38:58.912Z,72.76
2019-04-01T00:41:28.644Z,72.83
2019-04-01T00:44:00.121Z,72.76
2019-04-01T00:46:30.151Z,72.27
2019-04-01T00:48:59.992Z,72.21
2019-04-01T00:51:29.928Z,72.20
2019-04-01T00:53:59.965Z,72.13
2019-04-01T00:56:29.903Z,72.03
2019-04-01T00:58:59.626Z,71.89
2019-04-01T01:01:29.568Z,72.28
2019-04-01T01:03:59.505Z,72.10
2019-04-01T01:06:29.337Z,72.33
2019-04-01T01:08:59.273Z,72.59
2019-04-01T01:11:29.208Z,72.25
2019-04-01T01:13:59.033Z,72.58
2019-04-01T01:16:28.874Z,72.55
2019-04-01T01:18:58.810Z,72.64
2019-04-01T01:21:28.747Z,72.83
2019-04-01T01:23:58.582Z,72.86
2019-04-01T01:26:28.404Z,73.25
2019-04-01T01:28:58.348Z,73.47
2019-04-01T01:31:28.283Z,73.90
2019-04-01T01:33:58.109Z,74.00
2019-04-01T01:36:28.052Z,73.21
2019-04-01T01:38:57.878Z,73.66
2019-04-01T01:41:27.718Z,73.90
2019-04-01T01:43:57.657Z,74.26
2019-04-01T01:46:27.590Z,74.22
2019-04-01T01:48:57.423Z,74.81
2019-04-01T01:51:27.249Z,75.28
2019-04-01T01:53:57.192Z,75.66
2019-04-01T01:56:27.027Z,75.90
2019-04-01T01:58:56.850Z,75.97
2019-04-01T02:01:26.795Z,76.43
2019-04-01T02:03:56.730Z,76.64
2019-04-01T02:06:26.568Z,76.46
2019-04-01T02:08:56.502Z,76.96
2019-04-01T02:11:26.333Z,77.26
2019-04-01T02:13:56.169Z,77.31
2019-04-01T02:16:25.991Z,77.17
2019-04-01T02:18:55.935Z,77.33
2019-04-01T02:21:25.768Z,77.78
2019-04-01T02:23:55.593Z,77.70
2019-04-01T02:26:25.426Z,77.52
2019-04-01T02:28:55.269Z,77.64
2019-04-01T02:31:25.203Z,77.77
2019-04-01T02:33:55.141Z,77.57
2019-04-01T02:36:24.869Z,77.71
2019-04-01T02:38:54.704Z,77.75
2019-04-01T02:41:24.434Z,77.76
2019-04-01T02:43:54.268Z,77.69
2019-04-01T02:46:24.205Z,77.85
2019-04-01T02:48:54.139Z,77.72
2019-04-01T02:51:23.977Z,77.82
2019-04-01T02:53:53.908Z,77.91
2019-04-01T02:56:23.845Z,78.04
2019-04-01T02:58:53.780Z,78.22
2019-04-01T03:01:23.614Z,78.16
2019-04-01T03:03:53.346Z,78.35
2019-04-01T03:06:23.281Z,78.29
2019-04-01T03:08:53.003Z,78.33
2019-04-01T03:11:22.948Z,78.44
2019-04-01T03:13:52.885Z,78.29
2019-04-01T03:16:22.718Z,78.26
2019-04-01T03:18:52.652Z,78.19
2019-04-01T03:21:22.477Z,78.29
2019-04-01T03:23:52.426Z,78.39
2019-04-01T03:26:22.248Z,78.29
2019-04-01T03:28:51.775Z,78.48
2019-04-01T03:31:21.629Z,78.28
2019-04-01T03:33:51.652Z,78.19
2019-04-01T03:36:21.482Z,78.21
2019-04-01T03:38:51.414Z,77.88
2019-04-01T03:41:21.574Z,77.83
2019-04-01T03:43:51.384Z,77.70
2019-04-01T03:46:21.219Z,77.59
2019-04-01T03:48:51.064Z,77.43
2019-04-01T03:51:20.896Z,77.18
2019-04-01T03:53:50.829Z,77.24
2019-04-01T03:56:20.662Z,77.20
2019-04-01T03:58:50.521Z,76.82
2019-04-01T04:01:20.534Z,76.71
2019-04-01T04:03:50.161Z,76.57
2019-04-01T04:06:20.201Z,76.35
2019-04-01T04:08:50.068Z,76.19
2019-04-01T04:11:20.276Z,76.09
2019-04-01T04:13:50.108Z,75.96
2019-04-01T04:16:20.045Z,75.71
2019-04-01T04:18:50.762Z,75.28
2019-04-01T04:21:23.804Z,75.10
2019-04-01T04:23:51.695Z,74.94
2019-04-01T04:26:21.539Z,74.64
2019-04-01T04:28:51.462Z,74.19
2019-04-01T04:31:20.999Z,74.10
2019-04-01T04:33:50.922Z,73.56
2019-04-01T04:36:20.860Z,73.29
2019-04-01T04:38:50.793Z,73.03
2019-04-01T04:41:20.628Z,72.33
2019-04-01T04:43:50.665Z,71.89
2019-04-01T04:46:21.269Z,71.08
2019-04-01T04:48:51.151Z,70.62
2019-04-01T04:51:20.975Z,69.96
2019-04-01T04:53:50.816Z,69.68
2019-04-01T04:56:20.752Z,69.77
2019-04-01T04:58:50.687Z,69.47
2019-04-01T05:01:20.622Z,69.11
2019-04-01T05:03:50.448Z,69.36
2019-04-01T05:06:20.289Z,68.46
2019-04-01T05:08:50.225Z,68.08
2019-04-01T05:11:19.949Z,67.45
2019-04-01T05:13:49.892Z,67.34
2019-04-01T05:16:19.828Z,66.42
2019-04-01T05:18:49.663Z,65.17
2019-04-01T05:21:19.384Z,64.27
2019-04-01T05:23:49.327Z,63.85
2019-04-01T05:26:19.264Z,64.37
2019-04-01T05:28:49.200Z,64.50
2019-04-01T05:31:19.639Z,63.55
2019-04-01T05:33:55.213Z,62.79
2019-04-01T05:36:20.745Z,63.02
2019-04-01T05:38:50.680Z,62.63
2019-04-01T05:41:20.619Z,61.67
2019-04-01T05:43:50.449Z,60.75
2019-04-01T05:46:21.816Z,60.49
2019-04-01T05:48:51.753Z,59.32
2019-04-01T05:51:21.578Z,59.98
2019-04-01T05:53:51.409Z,59.92
2019-04-01T05:56:21.243Z,59.41
2019-04-01T05:58:51.076Z,57.43
2019-04-01T06:01:22.854Z,58.08
2019-04-01T06:03:52.695Z,58.57
2019-04-01T06:06:22.633Z,57.08
2019-04-01T06:08:52.353Z,58.39
2019-04-01T06:11:22.186Z,56.07
2019-04-01T06:13:52.018Z,56.17
2019-04-01T06:16:21.862Z,56.71
2019-04-01T06:18:51.697Z,57.93
2019-04-01T06:21:21.631Z,56.70
2019-04-01T06:23:51.455Z,56.87
2019-04-01T06:26:21.400Z,54.10
2019-04-01T06:28:51.335Z,54.52
2019-04-01T06:31:21.273Z,55.03
2019-04-01T06:34:01.034Z,55.24
2019-04-01T06:36:33.416Z,55.88
2019-04-01T06:39:04.774Z,56.11
2019-04-01T06:41:34.718Z,56.19
2019-04-01T06:44:04.551Z,55.56
2019-04-01T06:46:34.488Z,54.08
2019-04-01T06:49:04.423Z,53.61
2019-04-01T06:51:34.256Z,53.75
2019-04-01T06:54:04.196Z,53.93
2019-04-01T06:56:34.127Z,53.48
2019-04-01T06:59:04.063Z,53.71
2019-04-01T07:01:33.787Z,52.85
2019-04-01T07:04:03.731Z,52.18
2019-04-01T07:06:33.665Z,51.73
2019-04-01T07:09:05.238Z,51.87
2019-04-01T07:11:35.318Z,50.92
2019-04-01T07:14:05.409Z,51.28
2019-04-01T07:16:35.241Z,50.73
2019-04-01T07:19:05.184Z,50.86
2019-04-01T07:21:34.951Z,50.34
2019-04-01T07:24:04.843Z,50.26
2019-04-01T07:26:34.780Z,50.82
2019-04-01T07:29:04.672Z,46.16
2019-04-01T07:31:34.659Z,48.02
2019-04-01T07:34:04.486Z,47.07
2019-04-01T07:36:34.635Z,47.33
2019-04-01T07:39:05.692Z,46.95
2019-04-01T07:41:35.519Z,47.17
2019-04-01T07:44:05.156Z,46.62
2019-04-01T07:46:35.091Z,46.84
2019-04-01T07:49:04.925Z,45.04
2019-04-01T07:51:38.327Z,45.45
2019-04-01T07:54:06.742Z,44.55
2019-04-01T07:56:36.427Z,44.59
2019-04-01T07:59:06.294Z,44.99
2019-04-01T08:04:13.223Z,43.58
2019-04-01T08:06:43.066Z,42.33
2019-04-01T08:09:13.103Z,40.67
2019-04-01T08:11:43.039Z,40.95
2019-04-01T08:14:12.981Z,39.79
2019-04-01T08:16:42.799Z,40.42
2019-04-01T08:19:13.065Z,40.00
2019-04-01T08:21:44.711Z,39.68
2019-04-01T08:24:14.688Z,39.09
2019-04-01T08:26:44.281Z,39.01
2019-04-01T08:29:28.959Z,38.26
2019-04-01T08:31:46.002Z,38.43
2019-04-01T08:34:15.934Z,37.82
2019-04-01T08:36:45.464Z,37.23
2019-04-01T08:39:15.401Z,37.50
2019-04-01T08:41:45.234Z,36.97
2019-04-01T08:44:15.169Z,37.16
2019-04-01T08:46:44.994Z,36.20
2019-04-01T08:49:16.852Z,35.72
2019-04-01T08:51:46.401Z,35.16
2019-04-01T08:54:16.344Z,34.07
2019-04-01T08:56:46.281Z,34.17
2019-04-01T08:59:16.114Z,33.77
2019-04-01T09:01:46.039Z,33.27
2019-04-01T09:04:15.668Z,32.36
2019-04-01T09:06:45.513Z,32.14
2019-04-01T09:09:15.338Z,32.37
2019-04-01T09:11:45.280Z,32.33
2019-04-01T09:14:15.112Z,31.21
2019-04-01T09:16:45.048Z,32.30
2019-04-01T09:19:14.984Z,32.60
2019-04-01T09:21:46.546Z,32.91
2019-04-01T09:24:16.185Z,33.36
2019-04-01T09:26:47.143Z,31.91
2019-04-01T09:29:16.867Z,33.19
2019-04-01T09:31:46.700Z,33.25
2019-04-01T09:34:16.536Z,33.29
2019-04-01T09:36:46.366Z,33.14
2019-04-01T09:39:16.318Z,33.09
2019-04-01T09:41:46.246Z,33.22
2019-04-01T09:44:15.969Z,32.53
2019-04-01T09:46:48.862Z,33.54
2019-04-01T09:49:16.966Z,33.24
2019-04-01T09:51:48.857Z,31.43
2019-04-01T09:54:18.278Z,32.24
2019-04-01T09:56:48.213Z,29.81
2019-04-01T09:59:17.935Z,32.13
2019-04-01T10:01:47.880Z,31.62
2019-04-01T10:04:17.833Z,31.61
2019-04-01T10:06:47.539Z,31.46
2019-04-01T10:09:17.481Z,31.66
2019-04-01T10:11:47.316Z,31.62
2019-04-01T10:14:17.148Z,31.18
2019-04-01T10:16:46.974Z,30.98
2019-04-01T10:19:16.918Z,31.54
2019-04-01T10:21:47.663Z,31.05
2019-04-01T10:24:17.607Z,30.96
2019-04-01T10:26:47.331Z,30.29
2019-04-01T10:29:17.275Z,29.94
2019-04-01T10:31:47.209Z,29.94
2019-04-01T10:34:16.932Z,29.74
2019-04-01T10:36:46.876Z,30.41
2019-04-01T10:39:16.702Z,30.26
2019-04-01T10:41:46.649Z,29.77
2019-04-01T10:44:16.582Z,30.61
2019-04-01T10:46:46.669Z,29.18
2019-04-01T10:49:16.245Z,28.92
2019-04-01T10:51:46.231Z,29.12
2019-04-01T10:54:16.321Z,28.75
2019-04-01T10:56:46.338Z,28.99
2019-04-01T10:59:16.543Z,28.73
2019-04-01T11:01:46.348Z,28.97
2019-04-01T11:04:16.273Z,28.18
2019-04-01T11:06:46.284Z,27.93
2019-04-01T11:09:17.091Z,27.91
2019-04-01T11:11:47.106Z,28.69
2019-04-01T11:14:17.037Z,28.39
2019-04-01T11:16:46.972Z,28.91
2019-04-01T11:19:16.797Z,27.57
2019-04-01T11:21:46.676Z,27.98
2019-04-01T11:24:16.566Z,27.67
2019-04-01T11:26:46.297Z,27.01
2019-04-01T11:29:16.129Z,27.32
2019-04-01T11:31:45.987Z,27.53
2019-04-01T11:34:15.941Z,28.09
2019-04-01T11:36:45.957Z,28.39
2019-04-01T11:39:15.895Z,27.98
2019-04-01T11:41:45.651Z,27.51
2019-04-01T11:44:15.570Z,27.12
2019-04-01T11:46:45.287Z,27.51
2019-04-01T11:49:15.186Z,26.31
2019-04-01T11:51:45.265Z,26.97
2019-04-01T11:54:15.077Z,25.94
2019-04-01T11:56:45.022Z,26.26
2019-04-01T11:59:14.641Z,27.04
2019-04-01T12:01:44.590Z,26.70
2019-04-01T12:04:14.410Z,26.50
2019-04-01T12:06:44.253Z,26.68
2019-04-01T12:09:14.192Z,26.23
2019-04-01T12:11:43.910Z,25.72
2019-04-01T12:14:15.799Z,26.11
2019-04-01T12:16:45.734Z,27.05
2019-04-01T12:19:18.163Z,27.20
2019-04-01T12:21:46.937Z,26.42
2019-04-01T12:24:16.871Z,26.62
2019-04-01T12:26:47.181Z,26.60
2019-04-01T12:29:17.255Z,26.75
2019-04-01T12:31:47.089Z,26.82
2019-04-01T12:34:17.692Z,27.26
2019-04-01T12:36:48.401Z,27.98
2019-04-01T12:39:18.941Z,27.48
2019-04-01T12:41:48.874Z,27.68
2019-04-01T12:44:18.709Z,26.32
2019-04-01T12:46:48.541Z,26.50
2019-04-01T12:49:18.477Z,27.39
2019-04-01T12:51:49.098Z,27.20
2019-04-01T12:54:19.882Z,27.60
2019-04-01T12:56:49.819Z,28.03
2019-04-01T12:59:19.753Z,28.28
2019-04-01T13:01:49.938Z,28.01
2019-04-01T13:04:19.821Z,26.93
2019-04-01T13:06:49.765Z,26.75
2019-04-01T13:09:19.589Z,27.21
2019-04-01T13:11:49.431Z,27.84
2019-04-01T13:14:19.265Z,27.75
2019-04-01T13:16:49.201Z,28.20
2019-04-01T13:19:19.034Z,27.36
2019-04-01T13:21:48.970Z,27.64
2019-04-01T13:24:18.905Z,28.39
2019-04-01T13:26:50.902Z,29.34
2019-04-01T13:29:19.903Z,29.30
2019-04-01T13:31:51.079Z,29.51
2019-04-01T13:34:20.980Z,29.92
2019-04-01T13:36:50.935Z,30.15
2019-04-01T13:39:20.873Z,29.99
2019-04-01T13:41:50.705Z,29.91
2019-04-01T13:44:20.640Z,30.11
2019-04-01T13:46:50.753Z,29.69
2019-04-01T13:49:21.126Z,29.69
2019-04-01T13:51:51.060Z,29.55
2019-04-01T13:54:20.895Z,29.62
2019-04-01T13:56:50.830Z,29.37
2019-04-01T13:59:20.654Z,29.63
2019-04-01T14:01:50.600Z,30.46
2019-04-01T14:04:20.425Z,30.34
2019-04-01T14:06:50.369Z,30.51
2019-04-01T14:09:20.921Z,30.90
2019-04-01T14:11:50.957Z,31.25
2019-04-01T14:14:23.346Z,31.47
2019-04-01T14:16:53.171Z,31.14
2019-04-01T14:19:23.283Z,31.12
2019-04-01T14:21:52.948Z,31.37
2019-04-01T14:24:23.765Z,31.58
2019-04-01T14:26:56.462Z,32.02
2019-04-01T14:29:24.496Z,31.79
2019-04-01T14:31:54.431Z,31.92
2019-04-01T14:34:24.356Z,31.76
2019-04-01T14:36:54.301Z,30.73
2019-04-01T14:39:24.029Z,32.00
2019-04-01T14:41:53.856Z,31.99
2019-04-01T14:44:23.691Z,32.27
2019-04-01T14:46:53.532Z,32.27
2019-04-01T14:49:23.356Z,32.65
2019-04-01T14:51:53.192Z,32.36
2019-04-01T14:54:23.045Z,33.01
2019-04-01T14:56:52.857Z,33.81
2019-04-01T14:59:25.362Z,34.39
2019-04-01T15:01:55.294Z,33.87
2019-04-01T15:04:25.229Z,33.99
2019-04-01T15:06:55.166Z,34.03
2019-04-01T15:09:25.100Z,34.48
2019-04-01T15:11:55.036Z,34.37
2019-04-01T15:14:24.973Z,34.44
2019-04-01T15:16:54.895Z,34.86
2019-04-01T15:19:24.843Z,34.90
2019-04-01T15:21:54.877Z,34.88
2019-04-01T15:24:24.512Z,35.37
2019-04-01T15:26:55.674Z,35.46
2019-04-01T15:29:25.191Z,35.41
2019-04-01T15:31:55.134Z,35.74
2019-04-01T15:34:25.073Z,36.33
2019-04-01T15:36:55.109Z,36.47
2019-04-01T15:39:25.248Z,36.40
2019-04-01T15:41:55.184Z,36.71
2019-04-01T15:44:25.008Z,36.65
2019-04-01T15:46:54.954Z,37.19
2019-04-01T15:49:24.992Z,37.36
2019-04-01T15:51:54.826Z,37.53
2019-04-01T15:54:24.650Z,37.77
2019-04-01T15:56:54.594Z,38.36
2019-04-01T15:59:24.316Z,38.13
2019-04-01T16:01:54.150Z,38.59
2019-04-01T16:04:24.098Z,38.53
2019-04-01T16:06:53.929Z,39.08
2019-04-01T16:09:23.752Z,39.37
2019-04-01T16:11:54.301Z,39.08
2019-04-01T16:14:24.247Z,39.51
2019-04-01T16:16:53.968Z,39.44
2019-04-01T16:19:24.108Z,39.37
2019-04-01T16:21:53.949Z,39.52
2019-04-01T16:24:23.886Z,39.36
2019-04-01T16:26:53.721Z,39.05
2019-04-01T16:58:18.867Z,39.53
2019-04-01T17:04:20.022Z,39.84
2019-04-01T17:06:49.871Z,40.16
2019-04-01T17:09:20.397Z,40.28
2019-04-01T17:11:54.185Z,40.59
2019-04-01T17:14:24.442Z,40.43
2019-04-01T17:16:55.523Z,40.86
2019-04-01T17:19:28.009Z,41.15
2019-04-01T17:21:58.677Z,41.10
2019-04-01T17:24:29.421Z,41.19
2019-04-01T17:27:07.235Z,41.16
2019-04-01T17:29:37.883Z,41.16
2019-04-01T17:32:08.639Z,41.40
2019-04-01T17:34:47.254Z,41.48
2019-04-01T17:37:17.721Z,41.59
2019-04-01T17:39:48.569Z,41.83
2019-04-01T17:42:19.327Z,42.09
2019-04-01T17:44:53.352Z,42.51
2019-04-01T17:47:27.043Z,42.51
2019-04-01T17:49:56.289Z,41.98
2019-04-01T17:52:27.046Z,41.58
2019-04-01T17:54:57.697Z,41.53
2019-04-01T17:57:28.433Z,41.41
2019-04-01T17:59:59.204Z,41.20
2019-04-01T18:02:31.065Z,41.32
2019-04-01T18:05:01.842Z,41.25
2019-04-01T18:07:32.488Z,41.02
2019-04-01T18:10:03.334Z,40.93
2019-04-01T18:12:34.200Z,40.79
2019-04-01T18:15:04.939Z,40.52
2019-04-01T18:17:35.608Z,39.90
2019-04-01T18:20:07.083Z,39.82
2019-04-01T18:22:37.935Z,39.80
2019-04-01T18:25:08.791Z,39.74
2019-04-01T18:27:40.461Z,39.34
2019-04-01T18:30:11.321Z,39.67
2019-04-01T18:32:42.059Z,40.08
2019-04-01T18:35:12.833Z,39.71
2019-04-01T18:37:43.485Z,39.99
2019-04-01T18:40:14.334Z,39.89
2019-04-01T18:42:45.189Z,39.89
2019-04-01T18:45:16.028Z,39.85
2019-04-01T18:47:45.903Z,39.71
2019-04-01T18:50:16.415Z,39.62
2019-04-01T18:52:47.185Z,39.57
2019-04-01T18:55:17.834Z,39.53
2019-04-01T18:57:48.587Z,40.00
2019-04-01T19:00:19.344Z,40.01
2019-04-01T19:02:50.078Z,39.84
2019-04-01T19:05:20.750Z,39.47
2019-04-01T19:07:51.710Z,39.21
2019-04-01T19:10:22.342Z,39.08
2019-04-01T19:13:05.101Z,38.92
2019-04-01T19:15:26.249Z,38.52
2019-04-01T19:17:57.165Z,38.46
2019-04-01T19:20:30.432Z,38.36
2019-04-01T19:23:01.213Z,38.44
2019-04-01T19:25:32.300Z,37.94
2019-04-01T19:28:04.184Z,37.91
2019-04-01T19:30:34.915Z,37.47
2019-04-01T19:33:06.800Z,37.30
2019-04-01T19:35:37.465Z,37.49
2019-04-01T19:38:08.219Z,37.14
2019-04-01T19:40:38.873Z,37.22
2019-04-01T19:43:09.708Z,37.50
2019-04-01T19:45:41.200Z,37.27
2019-04-01T19:48:11.831Z,36.92
2019-04-01T19:50:42.703Z,37.61
2019-04-01T19:53:13.447Z,37.42
2019-04-01T19:55:44.209Z,37.38
2019-04-01T19:58:14.863Z,37.23
2019-04-01T20:00:45.718Z,37.63
2019-04-01T20:03:16.469Z,37.55
2019-04-01T20:05:47.223Z,37.30
2019-04-01T20:08:17.981Z,37.66
2019-04-01T20:10:48.613Z,37.45
2019-04-01T20:13:19.281Z,37.74
2019-04-01T20:15:49.343Z,37.60
2019-04-01T20:18:20.059Z,37.69
2019-04-01T20:20:50.812Z,37.36
2019-04-01T20:23:22.151Z,37.58
2019-04-01T20:25:53.448Z,37.26
2019-04-01T20:28:25.134Z,37.66
2019-04-01T20:30:56.570Z,37.83
2019-04-01T20:33:27.345Z,37.78
2019-04-01T20:35:58.270Z,38.13
2019-04-01T20:38:29.056Z,38.27
2019-04-01T20:40:59.805Z,38.66
2019-04-01T20:43:30.581Z,38.59
2019-04-01T20:46:01.436Z,38.61
2019-04-01T20:48:32.264Z,38.50
2019-04-01T20:51:03.659Z,39.18
2019-04-01T20:53:34.521Z,39.14
2019-04-01T20:56:05.267Z,39.45
2019-04-01T20:58:35.924Z,39.98
2019-04-01T21:01:07.175Z,40.87
2019-04-01T21:03:38.130Z,40.65
2019-04-01T21:06:19.019Z,41.03
2019-04-01T21:09:04.539Z,40.77
2019-04-01T21:11:42.111Z,40.97
2019-04-01T21:14:12.968Z,41.49
2019-04-01T21:16:43.824Z,41.70
2019-04-01T21:19:15.357Z,40.87
2019-04-01T21:21:46.541Z,41.36
2019-04-01T21:24:25.274Z,40.87
2019-04-01T21:26:56.203Z,41.21
2019-04-01T21:29:26.985Z,41.31
2019-04-01T21:31:57.857Z,41.45
2019-04-01T21:34:28.612Z,41.85
2019-04-01T21:36:59.246Z,42.52
2019-04-01T21:39:30.057Z,42.68
2019-04-01T21:42:00.757Z,42.89
2019-04-01T21:44:31.629Z,43.18
2019-04-01T21:47:01.380Z,42.93
2019-04-01T21:49:31.892Z,42.86
2019-04-01T21:52:03.496Z,42.98
2019-04-01T21:54:34.948Z,43.08
2019-04-01T21:57:05.684Z,43.43
2019-04-01T21:59:36.558Z,43.64
2019-04-01T22:02:07.397Z,43.29
2019-04-01T22:04:41.308Z,42.91
2019-04-01T22:07:12.297Z,42.59
2019-04-01T22:09:43.053Z,42.35
2019-04-01T22:12:13.786Z,42.11
2019-04-01T22:14:44.457Z,42.20
2019-04-01T22:17:16.149Z,41.89
2019-04-01T22:19:47.501Z,41.98
2019-04-01T22:22:18.252Z,42.15
2019-04-01T22:24:49.005Z,42.13
2019-04-01T22:27:19.863Z,42.22
2019-04-01T22:29:51.527Z,42.56
2019-04-01T22:32:22.391Z,41.95
2019-04-01T22:34:53.147Z,41.90
2019-04-01T22:37:27.413Z,41.81
2019-04-01T22:39:56.089Z,41.43
2019-04-01T22:42:27.259Z,41.69
2019-04-01T22:44:58.210Z,41.82
2019-04-01T22:47:29.057Z,41.73
2019-04-01T22:49:59.815Z,41.89
2019-04-01T22:52:30.626Z,42.15
2019-04-01T22:55:01.529Z,42.01
2019-04-01T22:57:32.291Z,42.03
2019-04-01T23:00:03.041Z,42.13
2019-04-01T23:02:35.325Z,42.34
2019-04-01T23:05:08.271Z,42.00
2019-04-01T23:07:38.877Z,42.15
2019-04-01T23:10:09.614Z,42.21
2019-04-01T23:12:40.488Z,42.00
2019-04-01T23:15:11.123Z,42.22
2019-04-01T23:17:41.199Z,42.31
2019-04-01T23:20:11.728Z,42.35
2019-04-01T23:22:42.478Z,42.22
2019-04-01T23:25:13.425Z,42.13
2019-04-01T23:27:44.294Z,42.51
2019-04-01T23:30:16.071Z,42.53
2019-04-01T23:32:46.927Z,42.75
2019-04-01T23:35:17.682Z,42.77
2019-04-01T23:37:48.337Z,42.72
2019-04-01T23:40:19.188Z,43.24
2019-04-01T23:42:49.824Z,43.24
2019-04-01T23:45:20.986Z,43.50
2019-04-01T23:47:51.452Z,43.35
2019-04-01T23:50:22.205Z,43.73
2019-04-01T23:52:52.865Z,43.94
2019-04-01T23:55:22.806Z,44.41
2019-04-01T23:57:54.129Z,44.17
